createdAt,value
2022-10-14T00:01:46.682Z,1.30
2022-10-14T00:04:13.424Z,1.90
2022-10-14T00:06:40.213Z,1.30
2022-10-14T00:09:08.696Z,1.33
2022-10-14T00:11:36.254Z,1.40
2022-10-14T00:14:14.342Z,1.50
2022-10-14T00:16:41.652Z,1.50
2022-10-14T00:19:08.397Z,1.70
2022-10-14T00:21:35.257Z,1.93
2022-10-14T00:24:02.010Z,1.97
2022-10-14T00:26:31.208Z,1.70
2022-10-14T00:28:58.455Z,1.50
2022-10-14T00:31:25.360Z,1.60
2022-10-14T00:33:52.047Z,1.63
2022-10-14T00:36:20.118Z,1.70
2022-10-14T00:38:47.476Z,1.43
2022-10-14T00:41:15.864Z,1.40
2022-10-14T00:44:02.645Z,1.50
2022-10-14T00:46:34.224Z,1.40
2022-10-14T00:49:03.842Z,1.40
2022-10-14T00:51:30.589Z,1.50
2022-10-14T00:53:57.276Z,1.50
2022-10-14T00:56:25.834Z,1.63
2022-10-14T00:58:52.763Z,1.87
2022-10-14T01:01:19.609Z,1.20
2022-10-14T01:03:46.422Z,1.30
2022-10-14T01:06:51.284Z,1.33
2022-10-14T01:09:21.014Z,1.50
2022-10-14T01:12:27.973Z,1.00
2022-10-14T01:14:59.841Z,1.30
2022-10-14T01:17:45.365Z,1.50
2022-10-14T01:20:34.550Z,1.23
2022-10-14T01:23:30.400Z,1.57
2022-10-14T01:26:25.048Z,1.40
2022-10-14T01:29:22.006Z,1.60
2022-10-14T01:31:50.834Z,1.70
2022-10-14T01:34:24.708Z,1.30
2022-10-14T01:36:59.519Z,1.47
2022-10-14T01:39:33.646Z,1.63
2022-10-14T01:42:11.669Z,1.90
2022-10-14T01:44:41.090Z,0.93
2022-10-14T01:47:07.850Z,1.50
2022-10-14T01:49:44.285Z,1.50
2022-10-14T01:52:22.545Z,1.37
2022-10-14T01:54:51.498Z,1.47
2022-10-14T01:57:20.424Z,1.20
2022-10-14T01:59:47.106Z,1.30
2022-10-14T02:02:13.926Z,1.43
2022-10-14T02:04:40.704Z,1.47
2022-10-14T02:07:17.850Z,1.70
2022-10-14T02:10:13.284Z,1.30
2022-10-14T02:13:04.524Z,1.77
2022-10-14T02:15:34.013Z,1.20
2022-10-14T02:18:06.956Z,1.30
2022-10-14T02:20:40.303Z,1.60
2022-10-14T02:23:11.994Z,1.20
2022-10-14T02:25:39.711Z,2.00
2022-10-14T02:28:08.055Z,1.40
2022-10-14T02:30:41.007Z,1.57
2022-10-14T02:33:07.677Z,1.23
2022-10-14T02:35:34.356Z,1.10
2022-10-14T02:38:01.177Z,1.20
2022-10-14T02:40:31.263Z,1.50
2022-10-14T02:42:57.984Z,1.37
2022-10-14T02:45:26.352Z,1.57
2022-10-14T02:47:53.709Z,1.63
2022-10-14T02:50:20.998Z,1.40
2022-10-14T02:52:47.807Z,1.50
2022-10-14T02:55:14.476Z,1.20
2022-10-14T02:57:42.066Z,1.33
2022-10-14T03:00:09.334Z,1.53
2022-10-14T03:02:36.210Z,1.40
2022-10-14T03:05:02.995Z,1.27
2022-10-14T03:07:30.725Z,1.00
2022-10-14T03:09:58.369Z,1.40
2022-10-14T03:12:25.684Z,1.80
2022-10-14T03:14:52.407Z,1.50
2022-10-14T03:17:19.092Z,1.33
2022-10-14T03:19:45.803Z,1.87
2022-10-14T03:22:12.460Z,1.30
2022-10-14T03:24:39.138Z,1.17
2022-10-14T03:27:05.805Z,1.43
2022-10-14T03:29:32.520Z,1.30
2022-10-14T03:31:59.219Z,1.40
2022-10-14T03:34:25.936Z,1.50
2022-10-14T03:36:52.704Z,1.20
2022-10-14T03:39:20.471Z,1.57
2022-10-14T03:41:47.298Z,2.10
2022-10-14T03:44:13.959Z,1.87
2022-10-14T03:46:40.689Z,1.77
2022-10-14T03:49:07.783Z,1.90
2022-10-14T03:51:34.494Z,2.00
2022-10-14T03:54:01.377Z,2.00
2022-10-14T03:56:28.137Z,2.30
2022-10-14T03:58:54.872Z,2.20
2022-10-14T04:01:21.701Z,1.60
2022-10-14T04:03:48.426Z,2.47
2022-10-14T04:06:15.482Z,1.53
2022-10-14T04:08:42.452Z,1.90
2022-10-14T04:11:09.380Z,1.57
2022-10-14T04:13:36.828Z,1.67
2022-10-14T04:16:08.240Z,1.47
2022-10-14T04:18:35.328Z,1.73
2022-10-14T04:21:03.261Z,1.40
2022-10-14T04:23:29.952Z,1.37
2022-10-14T04:25:56.665Z,1.30
2022-10-14T04:28:23.384Z,1.30
2022-10-14T04:30:50.200Z,1.57
2022-10-14T04:33:16.855Z,1.67
2022-10-14T04:35:43.574Z,1.83
2022-10-14T04:38:10.339Z,2.17
2022-10-14T04:40:37.194Z,1.80
2022-10-14T04:43:03.954Z,1.33
2022-10-14T04:45:30.665Z,1.43
2022-10-14T04:47:57.441Z,1.50
2022-10-14T04:50:24.171Z,1.40
2022-10-14T04:52:50.843Z,1.70
2022-10-14T04:55:17.612Z,1.70
2022-10-14T04:57:44.426Z,1.70
2022-10-14T05:00:12.724Z,2.13
2022-10-14T05:02:39.398Z,1.97
2022-10-14T05:05:06.880Z,1.80
2022-10-14T05:07:34.342Z,1.73
2022-10-14T05:10:01.515Z,1.93
2022-10-14T05:12:28.677Z,1.70
2022-10-14T05:14:55.429Z,1.63
2022-10-14T05:17:22.390Z,1.97
2022-10-14T05:19:49.205Z,1.87
2022-10-14T05:22:15.932Z,1.90
2022-10-14T05:24:43.020Z,1.80
2022-10-14T05:27:09.747Z,1.60
2022-10-14T05:29:36.437Z,1.53
2022-10-14T05:32:03.218Z,1.83
2022-10-14T05:34:29.936Z,1.80
2022-10-14T05:36:56.691Z,1.90
2022-10-14T05:39:23.535Z,2.07
2022-10-14T05:41:50.230Z,1.77
2022-10-14T05:44:17.305Z,1.77
2022-10-14T05:46:44.009Z,1.97
2022-10-14T05:49:11.352Z,1.80
2022-10-14T05:51:38.176Z,1.40
2022-10-14T05:54:04.994Z,1.83
2022-10-14T05:56:31.778Z,1.40
2022-10-14T05:58:58.497Z,1.40
2022-10-14T06:01:25.171Z,1.77
2022-10-14T06:03:52.147Z,1.30
2022-10-14T06:06:18.987Z,1.80
2022-10-14T06:08:45.817Z,2.20
2022-10-14T06:11:12.621Z,1.47
2022-10-14T06:13:39.456Z,1.60
2022-10-14T06:16:07.945Z,1.40
2022-10-14T06:18:35.140Z,1.20
2022-10-14T06:21:02.061Z,1.50
2022-10-14T06:23:28.800Z,1.90
2022-10-14T06:25:55.543Z,2.50
2022-10-14T06:28:22.280Z,1.60
2022-10-14T06:30:52.673Z,1.53
2022-10-14T06:33:19.572Z,1.50
2022-10-14T06:35:46.706Z,1.37
2022-10-14T06:38:13.545Z,1.57
2022-10-14T06:40:40.360Z,1.33
2022-10-14T06:43:07.033Z,1.50
2022-10-14T06:45:33.782Z,1.17
2022-10-14T06:48:01.699Z,1.40
2022-10-14T06:50:28.595Z,1.57
2022-10-14T06:52:55.330Z,1.93
2022-10-14T06:55:22.074Z,1.70
2022-10-14T06:57:48.889Z,2.33
2022-10-14T07:00:16.169Z,2.00
2022-10-14T07:02:42.960Z,1.80
2022-10-14T07:05:09.957Z,1.70
2022-10-14T07:07:36.688Z,2.03
2022-10-14T07:10:03.622Z,1.27
2022-10-14T07:12:30.331Z,1.70
2022-10-14T07:14:57.082Z,1.70
2022-10-14T07:17:24.394Z,1.60
2022-10-14T07:19:51.447Z,1.37
2022-10-14T07:22:18.125Z,1.40
2022-10-14T07:24:45.032Z,1.70
2022-10-14T07:27:11.718Z,1.67
2022-10-14T07:29:38.370Z,0.70
2022-10-14T07:32:05.204Z,0.90
2022-10-14T07:34:33.701Z,1.30
2022-10-14T07:37:00.714Z,1.03
2022-10-14T07:39:28.737Z,1.37
2022-10-14T07:41:55.514Z,1.50
2022-10-14T07:44:24.940Z,1.40
2022-10-14T07:46:54.095Z,1.27
2022-10-14T07:49:21.184Z,1.37
2022-10-14T07:51:48.060Z,1.37
2022-10-14T07:54:19.856Z,1.43
2022-10-14T07:56:48.892Z,1.20
2022-10-14T07:59:16.440Z,1.60
2022-10-14T08:01:43.265Z,1.17
2022-10-14T08:04:13.133Z,1.50
2022-10-14T08:06:39.842Z,1.80
2022-10-14T08:09:07.124Z,1.30
2022-10-14T08:11:33.929Z,1.53
2022-10-14T08:14:00.660Z,1.57
2022-10-14T08:16:32.343Z,1.90
2022-10-14T08:19:01.400Z,1.87
2022-10-14T08:21:28.298Z,2.10
2022-10-14T08:23:55.110Z,3.87
2022-10-14T08:26:31.830Z,3.57
2022-10-14T08:29:03.038Z,2.60
2022-10-14T08:31:29.897Z,2.00
2022-10-14T08:33:56.553Z,1.90
2022-10-14T08:36:23.732Z,2.03
2022-10-14T08:38:51.849Z,2.13
2022-10-14T08:41:40.493Z,1.63
2022-10-14T08:44:24.127Z,1.83
2022-10-14T08:46:52.638Z,1.70
2022-10-14T08:49:25.460Z,1.70
2022-10-14T08:51:58.850Z,1.73
2022-10-14T08:54:36.403Z,1.70
2022-10-14T08:57:04.034Z,1.60
2022-10-14T08:59:30.840Z,1.40
2022-10-14T09:02:00.170Z,1.40
2022-10-14T09:04:26.993Z,1.27
2022-10-14T09:06:53.802Z,1.47
2022-10-14T09:09:43.546Z,1.10
2022-10-14T09:12:22.264Z,1.27
2022-10-14T09:15:09.153Z,1.00
2022-10-14T09:18:05.946Z,0.80
2022-10-14T09:20:32.783Z,1.20
2022-10-14T09:23:38.725Z,1.00
2022-10-14T09:26:08.336Z,1.10
2022-10-14T09:28:42.855Z,0.77
2022-10-14T09:31:12.857Z,1.00
2022-10-14T09:33:42.376Z,0.80
2022-10-14T09:36:17.539Z,0.90
2022-10-14T09:38:51.577Z,0.70
2022-10-14T09:41:18.558Z,0.70
2022-10-14T09:44:18.595Z,0.70
2022-10-14T09:46:53.566Z,0.97
2022-10-14T09:49:25.307Z,1.00
2022-10-14T09:51:52.024Z,0.80
2022-10-14T09:54:26.493Z,0.70
2022-10-14T09:57:19.576Z,0.60
2022-10-14T09:59:56.246Z,0.60
2022-10-14T10:02:26.258Z,1.20
2022-10-14T10:04:54.819Z,1.10
2022-10-14T10:07:34.417Z,1.37
2022-10-14T10:10:05.045Z,1.33
2022-10-14T10:12:33.496Z,0.60
2022-10-14T10:15:03.781Z,0.60
2022-10-14T10:17:35.555Z,0.50
2022-10-14T10:20:28.132Z,0.60
2022-10-14T10:22:56.582Z,0.50
2022-10-14T10:25:27.970Z,0.60
2022-10-14T10:27:57.435Z,0.67
2022-10-14T10:31:02.713Z,0.50
2022-10-14T10:33:34.848Z,0.40
2022-10-14T10:36:15.374Z,0.50
2022-10-14T10:39:14.911Z,0.43
2022-10-14T10:42:15.368Z,0.60
2022-10-14T10:45:07.012Z,0.43
2022-10-14T10:47:58.901Z,0.40
2022-10-14T10:50:28.821Z,0.40
2022-10-14T10:53:09.030Z,0.50
2022-10-14T10:56:11.086Z,0.40
2022-10-14T10:58:55.133Z,0.30
2022-10-14T11:01:39.863Z,0.30
2022-10-14T11:04:43.014Z,0.30
2022-10-14T11:07:46.752Z,0.20
2022-10-14T11:10:42.728Z,0.30
2022-10-14T11:13:21.437Z,0.30
2022-10-14T11:15:56.310Z,0.40
2022-10-14T11:18:35.589Z,0.20
2022-10-14T11:21:13.612Z,0.20
2022-10-14T11:23:48.345Z,0.23
2022-10-14T11:29:16.143Z,0.30
2022-10-14T11:32:00.646Z,0.20
2022-10-14T11:34:59.429Z,0.30
2022-10-14T11:37:43.845Z,0.20
2022-10-14T11:40:19.026Z,0.20
2022-10-14T11:42:48.511Z,0.30
2022-10-14T11:45:39.234Z,0.27
2022-10-14T11:48:12.179Z,0.30
2022-10-14T11:50:40.773Z,0.30
2022-10-14T11:53:22.475Z,0.20
2022-10-14T11:56:00.559Z,0.30
2022-10-14T11:58:27.404Z,0.30
2022-10-14T12:00:54.715Z,0.40
2022-10-14T12:03:27.872Z,0.30
2022-10-14T12:06:19.899Z,0.27
2022-10-14T12:08:55.240Z,0.40
2022-10-14T12:11:44.514Z,0.30
2022-10-14T12:14:19.952Z,0.20
2022-10-14T12:16:47.548Z,0.30
2022-10-14T12:19:16.733Z,0.20
2022-10-14T12:22:13.473Z,0.10
2022-10-14T12:24:41.976Z,0.20
2022-10-14T12:27:11.021Z,0.20
2022-10-14T12:29:40.793Z,0.30
2022-10-14T12:32:16.686Z,0.30
2022-10-14T12:34:43.709Z,0.20
2022-10-14T12:37:31.639Z,0.37
2022-10-14T12:40:07.705Z,0.20
2022-10-14T12:42:44.125Z,0.20
2022-10-14T12:45:26.289Z,0.30
2022-10-14T12:48:20.090Z,0.20
2022-10-14T12:50:47.701Z,0.20
2022-10-14T12:54:02.336Z,0.30
2022-10-14T12:56:31.014Z,0.20
2022-10-14T12:59:02.155Z,0.30
2022-10-14T13:01:32.362Z,0.20
2022-10-14T13:04:08.296Z,0.30
2022-10-14T13:06:39.970Z,0.30
2022-10-14T13:09:12.841Z,0.20
2022-10-14T13:11:43.045Z,0.20
2022-10-14T13:14:26.113Z,0.20
2022-10-14T13:16:52.814Z,0.30
2022-10-14T13:19:34.542Z,0.40
2022-10-14T13:22:02.160Z,0.20
2022-10-14T13:24:33.820Z,0.30
2022-10-14T13:27:30.152Z,0.40
2022-10-14T13:30:24.581Z,0.20
2022-10-14T13:32:59.709Z,0.20
2022-10-14T13:35:27.604Z,0.20
2022-10-14T13:38:14.439Z,0.20
2022-10-14T13:40:45.858Z,0.50
2022-10-14T13:43:19.605Z,10.63
2022-10-14T13:45:57.383Z,10.13
2022-10-14T13:48:40.670Z,6.43
2022-10-14T13:51:35.192Z,5.10
2022-10-14T13:54:25.914Z,3.57
2022-10-14T14:00:39.165Z,0.97
2022-10-14T14:02:39.342Z,0.70
2022-10-14T14:05:06.344Z,0.90
2022-10-14T14:08:14.213Z,0.43
2022-10-14T14:10:24.572Z,0.30
2022-10-14T14:12:51.359Z,0.27
2022-10-14T14:15:27.562Z,0.33
2022-10-14T14:17:54.373Z,0.30
2022-10-14T14:20:22.758Z,0.37
2022-10-14T14:22:49.580Z,0.40
2022-10-14T14:25:35.732Z,0.40
2022-10-14T14:28:03.432Z,0.50
2022-10-14T14:30:34.675Z,0.47
2022-10-14T14:33:03.525Z,0.60
2022-10-14T14:35:30.294Z,0.40
2022-10-14T14:37:57.139Z,0.40
2022-10-14T14:40:28.399Z,0.50
2022-10-14T14:42:59.481Z,0.50
2022-10-14T14:45:30.837Z,0.30
2022-10-14T14:47:58.706Z,0.50
2022-10-14T14:50:40.247Z,0.60
2022-10-14T14:53:20.693Z,0.40
2022-10-14T14:55:53.583Z,0.60
2022-10-14T14:58:39.345Z,0.50
2022-10-14T15:01:06.702Z,0.70
2022-10-14T15:03:35.754Z,0.60
2022-10-14T15:06:03.987Z,0.67
2022-10-14T15:08:39.849Z,0.60
2022-10-14T15:11:06.598Z,0.40
2022-10-14T15:13:39.531Z,0.60
2022-10-14T15:16:06.684Z,0.70
2022-10-14T15:18:33.564Z,0.90
2022-10-14T15:21:12.225Z,0.60
2022-10-14T15:23:43.572Z,0.40
2022-10-14T15:26:36.093Z,0.50
2022-10-14T15:29:24.893Z,0.60
2022-10-14T15:32:22.099Z,0.50
2022-10-14T15:34:59.539Z,0.90
2022-10-14T15:37:31.673Z,0.77
2022-10-14T15:40:03.471Z,0.57
2022-10-14T15:42:30.273Z,0.70
2022-10-14T15:44:57.204Z,0.60
2022-10-14T15:47:24.769Z,0.80
2022-10-14T15:49:51.453Z,1.20
2022-10-14T15:52:20.413Z,1.20
2022-10-14T15:54:50.782Z,1.40
2022-10-14T15:57:17.537Z,1.27
2022-10-14T15:59:44.290Z,1.20
2022-10-14T16:02:23.029Z,0.87
2022-10-14T16:05:18.187Z,1.00
2022-10-14T16:07:38.568Z,1.20
2022-10-14T16:10:06.229Z,1.80
2022-10-14T16:12:32.932Z,1.47
2022-10-14T16:15:01.616Z,2.17
2022-10-14T16:17:28.537Z,3.67
2022-10-14T16:19:55.206Z,3.43
2022-10-14T16:22:21.898Z,3.60
2022-10-14T16:24:48.625Z,3.10
2022-10-14T16:27:15.329Z,3.30
2022-10-14T16:29:42.024Z,3.37
2022-10-14T16:32:09.792Z,3.53
2022-10-14T16:34:36.472Z,2.80
2022-10-14T16:37:03.201Z,2.30
2022-10-14T16:39:29.913Z,1.57
2022-10-14T16:41:56.679Z,1.50
2022-10-14T16:44:27.253Z,1.37
2022-10-14T16:47:13.351Z,1.70
2022-10-14T16:49:40.455Z,1.60
2022-10-14T16:52:08.003Z,1.83
2022-10-14T16:54:34.852Z,1.83
2022-10-14T16:57:01.909Z,1.67
2022-10-14T16:59:28.730Z,2.03
2022-10-14T17:01:55.590Z,2.00
2022-10-14T17:04:22.380Z,1.87
2022-10-14T17:06:49.102Z,1.60
2022-10-14T17:09:16.185Z,2.03
2022-10-14T17:11:43.082Z,2.53
2022-10-14T17:14:10.868Z,2.67
2022-10-14T17:16:37.591Z,2.07
2022-10-14T17:19:04.346Z,2.07
2022-10-14T17:21:31.024Z,2.13
2022-10-14T17:24:01.870Z,2.33
2022-10-14T17:26:32.234Z,1.90
2022-10-14T17:28:58.995Z,1.77
2022-10-14T17:31:25.916Z,2.00
2022-10-14T17:33:52.727Z,1.90
2022-10-14T17:36:24.269Z,2.03
2022-10-14T17:38:52.063Z,1.27
2022-10-14T17:41:18.957Z,1.80
2022-10-14T17:43:49.476Z,3.17
2022-10-14T17:46:18.343Z,3.83
2022-10-14T17:48:49.178Z,2.70
2022-10-14T17:51:15.894Z,2.07
2022-10-14T17:53:42.736Z,2.43
2022-10-14T17:56:10.957Z,2.53
2022-10-14T17:58:37.949Z,1.77
2022-10-14T18:01:14.221Z,1.90
2022-10-14T18:03:42.553Z,1.63
2022-10-14T18:06:14.490Z,1.77
2022-10-14T18:08:41.980Z,1.30
2022-10-14T18:11:10.793Z,1.63
2022-10-14T18:13:37.879Z,1.40
2022-10-14T18:16:13.181Z,1.23
2022-10-14T18:18:40.762Z,1.90
2022-10-14T18:21:07.774Z,2.93
2022-10-14T18:23:41.723Z,3.33
2022-10-14T18:26:13.389Z,2.50
2022-10-14T18:28:42.523Z,2.90
2022-10-14T18:31:11.428Z,2.57
2022-10-14T18:33:38.866Z,2.37
2022-10-14T18:36:06.424Z,2.70
2022-10-14T18:38:34.641Z,1.93
2022-10-14T18:41:05.576Z,1.75
2022-10-14T18:43:32.524Z,3.27
2022-10-14T18:46:19.078Z,2.30
2022-10-14T18:48:47.480Z,3.90
2022-10-14T18:51:15.237Z,3.27
2022-10-14T18:53:43.538Z,2.90
2022-10-14T18:56:15.276Z,2.20
2022-10-14T18:58:43.042Z,2.27
2022-10-14T19:01:11.053Z,2.47
2022-10-14T19:03:40.913Z,2.03
2022-10-14T19:06:08.424Z,2.20
2022-10-14T19:08:37.014Z,2.53
2022-10-14T19:11:08.609Z,2.43
2022-10-14T19:13:35.426Z,2.40
2022-10-14T19:16:08.229Z,1.80
2022-10-14T19:18:35.404Z,1.60
2022-10-14T19:21:10.090Z,1.10
2022-10-14T19:23:37.599Z,1.50
2022-10-14T19:26:05.896Z,1.63
2022-10-14T19:28:32.667Z,1.80
2022-10-14T19:31:04.015Z,1.50
2022-10-14T19:33:30.748Z,1.43
2022-10-14T19:36:00.258Z,1.30
2022-10-14T19:38:27.082Z,1.50
2022-10-14T19:40:53.854Z,1.70
2022-10-14T19:43:20.619Z,1.67
2022-10-14T19:45:50.218Z,1.80
2022-10-14T19:48:17.240Z,2.10
2022-10-14T19:50:43.925Z,1.80
2022-10-14T19:53:10.736Z,1.90
2022-10-14T19:55:37.493Z,2.33
2022-10-14T19:58:04.536Z,1.80
2022-10-14T20:00:31.626Z,1.80
2022-10-14T20:02:58.368Z,2.17
2022-10-14T20:05:25.187Z,1.90
2022-10-14T20:07:53.836Z,2.23
2022-10-14T20:10:20.722Z,1.50
2022-10-14T20:12:47.459Z,1.60
2022-10-14T20:15:14.175Z,3.43
2022-10-14T20:17:40.849Z,4.13
2022-10-14T20:20:08.106Z,6.17
2022-10-14T20:22:34.888Z,5.70
2022-10-14T20:25:01.707Z,3.97
2022-10-14T20:27:28.400Z,2.93
2022-10-14T20:29:55.137Z,2.30
2022-10-14T20:32:21.962Z,2.20
2022-10-14T20:34:48.685Z,1.43
2022-10-14T20:37:15.424Z,5.13
2022-10-14T20:39:42.155Z,5.97
2022-10-14T20:42:08.925Z,6.50
2022-10-14T20:47:02.472Z,6.40
2022-10-14T20:49:29.483Z,7.03
2022-10-14T20:51:56.371Z,5.07
2022-10-14T20:54:23.095Z,3.10
2022-10-14T20:56:49.967Z,2.87
2022-10-14T20:59:16.747Z,2.13
2022-10-14T21:01:43.495Z,2.20
2022-10-14T21:04:10.247Z,1.90
2022-10-14T21:06:38.818Z,1.70
2022-10-14T21:09:05.683Z,1.70
2022-10-14T21:11:32.421Z,1.67
2022-10-14T21:13:59.672Z,1.57
2022-10-14T21:16:31.179Z,1.70
2022-10-14T21:18:59.725Z,1.67
2022-10-14T21:21:28.082Z,1.57
2022-10-14T21:23:55.302Z,1.83
2022-10-14T21:26:22.348Z,1.50
2022-10-14T21:28:49.159Z,1.90
2022-10-14T21:31:18.919Z,1.50
2022-10-14T21:33:47.535Z,1.90
2022-10-14T21:36:15.088Z,1.13
2022-10-14T21:38:42.193Z,1.17
2022-10-14T21:41:09.060Z,0.70
2022-10-14T21:43:36.422Z,0.77
2022-10-14T21:46:08.016Z,0.80
2022-10-14T21:48:34.839Z,0.60
2022-10-14T21:51:03.130Z,3.67
2022-10-14T21:53:31.240Z,4.30
2022-10-14T21:55:58.081Z,4.27
2022-10-14T21:58:24.738Z,3.33
2022-10-14T22:00:51.475Z,2.60
2022-10-14T22:03:18.318Z,2.53
2022-10-14T22:05:45.034Z,1.80
2022-10-14T22:08:11.680Z,1.80
2022-10-14T22:10:40.949Z,1.60
2022-10-14T22:13:07.951Z,2.10
2022-10-14T22:15:35.606Z,1.47
2022-10-14T22:18:02.873Z,1.83
2022-10-14T22:20:29.707Z,1.33
2022-10-14T22:22:58.869Z,1.53
2022-10-14T22:25:25.944Z,1.17
2022-10-14T22:27:52.816Z,1.07
2022-10-14T22:30:19.639Z,1.03
2022-10-14T22:32:46.356Z,0.93
2022-10-14T22:35:13.050Z,1.00
2022-10-14T22:37:40.068Z,1.00
2022-10-14T22:40:07.245Z,1.63
2022-10-14T22:42:35.188Z,1.13
2022-10-14T22:45:03.795Z,1.73
2022-10-14T22:47:30.673Z,2.13
2022-10-14T22:49:57.442Z,1.57
2022-10-14T22:52:24.308Z,2.00
2022-10-14T22:54:51.441Z,2.30
2022-10-14T22:57:18.230Z,1.60
2022-10-14T22:59:45.019Z,1.70
2022-10-14T23:02:11.764Z,1.80
2022-10-14T23:04:38.438Z,1.60
2022-10-14T23:07:06.979Z,1.90
2022-10-14T23:12:01.749Z,1.83
2022-10-14T23:14:30.358Z,2.10
2022-10-14T23:16:57.128Z,1.50
2022-10-14T23:19:23.837Z,1.60
2022-10-14T23:21:50.561Z,1.97
2022-10-14T23:24:17.276Z,2.40
2022-10-14T23:26:44.036Z,2.00
2022-10-14T23:29:14.088Z,2.17
2022-10-14T23:31:41.027Z,2.20
2022-10-14T23:34:12.188Z,1.80
2022-10-14T23:36:39.304Z,1.87
2022-10-14T23:39:06.186Z,1.80
2022-10-14T23:41:33.126Z,1.70
2022-10-14T23:43:59.880Z,2.50
2022-10-14T23:46:26.633Z,1.93
2022-10-14T23:49:06.841Z,1.93
2022-10-14T23:51:34.903Z,2.07
2022-10-14T23:54:01.675Z,1.67
2022-10-14T23:56:28.368Z,2.00
2022-10-14T23:58:55.052Z,2.30
